sensor_id;sensor_type;location;lat;lon;timestamp;P1;durP1;ratioP1;P2;durP2;ratioP2
52432;SDS011;38352;53.244;6.594;2023-08-12T00:00:28;8.55;;;5.07;;
52432;SDS011;38352;53.244;6.594;2023-08-12T00:02:55;8.98;;;4.80;;
52432;SDS011;38352;53.244;6.594;2023-08-12T00:05:21;10.00;;;4.78;;
52432;SDS011;38352;53.244;6.594;2023-08-12T00:07:47;10.85;;;5.15;;
52432;SDS011;38352;53.244;6.594;2023-08-12T00:10:14;13.43;;;5.38;;
52432;SDS011;38352;53.244;6.594;2023-08-12T00:12:40;10.48;;;4.53;;
52432;SDS011;38352;53.244;6.594;2023-08-12T00:15:06;11.65;;;5.40;;
52432;SDS011;38352;53.244;6.594;2023-08-12T00:17:33;9.15;;;4.53;;
52432;SDS011;38352;53.244;6.594;2023-08-12T00:20:01;8.18;;;4.07;;
52432;SDS011;38352;53.244;6.594;2023-08-12T00:22:30;7.30;;;4.32;;
52432;SDS011;38352;53.244;6.594;2023-08-12T00:24:56;8.68;;;4.22;;
52432;SDS011;38352;53.244;6.594;2023-08-12T00:27:22;8.32;;;3.60;;
52432;SDS011;38352;53.244;6.594;2023-08-12T00:29:48;8.40;;;3.42;;
52432;SDS011;38352;53.244;6.594;2023-08-12T00:32:14;7.28;;;3.63;;
52432;SDS011;38352;53.244;6.594;2023-08-12T00:34:41;6.65;;;2.95;;
52432;SDS011;38352;53.244;6.594;2023-08-12T00:37:07;8.02;;;3.58;;
52432;SDS011;38352;53.244;6.594;2023-08-12T00:39:33;7.03;;;3.03;;
52432;SDS011;38352;53.244;6.594;2023-08-12T00:41:59;8.73;;;3.95;;
52432;SDS011;38352;53.244;6.594;2023-08-12T00:44:25;6.55;;;2.50;;
52432;SDS011;38352;53.244;6.594;2023-08-12T00:46:51;7.65;;;2.63;;
52432;SDS011;38352;53.244;6.594;2023-08-12T00:49:20;8.02;;;3.17;;
52432;SDS011;38352;53.244;6.594;2023-08-12T00:51:46;8.13;;;2.75;;
52432;SDS011;38352;53.244;6.594;2023-08-12T00:54:14;7.95;;;2.88;;
52432;SDS011;38352;53.244;6.594;2023-08-12T00:56:40;9.38;;;2.95;;
52432;SDS011;38352;53.244;6.594;2023-08-12T00:59:07;7.35;;;3.08;;
52432;SDS011;38352;53.244;6.594;2023-08-12T01:01:34;6.28;;;2.53;;
52432;SDS011;38352;53.244;6.594;2023-08-12T01:04:00;9.70;;;2.83;;
52432;SDS011;38352;53.244;6.594;2023-08-12T01:06:26;7.03;;;2.83;;
52432;SDS011;38352;53.244;6.594;2023-08-12T01:08:55;5.97;;;2.50;;
52432;SDS011;38352;53.244;6.594;2023-08-12T01:11:45;4.95;;;2.45;;
52432;SDS011;38352;53.244;6.594;2023-08-12T01:16:35;6.78;;;2.33;;
52432;SDS011;38352;53.244;6.594;2023-08-12T01:19:04;6.05;;;2.40;;
52432;SDS011;38352;53.244;6.594;2023-08-12T01:21:31;6.70;;;2.90;;
52432;SDS011;38352;53.244;6.594;2023-08-12T01:23:58;6.90;;;2.80;;
52432;SDS011;38352;53.244;6.594;2023-08-12T01:26:24;8.98;;;3.20;;
52432;SDS011;38352;53.244;6.594;2023-08-12T01:28:50;6.18;;;2.42;;
52432;SDS011;38352;53.244;6.594;2023-08-12T01:31:39;7.60;;;3.03;;
52432;SDS011;38352;53.244;6.594;2023-08-12T01:34:06;6.40;;;2.80;;
52432;SDS011;38352;53.244;6.594;2023-08-12T01:36:33;6.07;;;2.83;;
52432;SDS011;38352;53.244;6.594;2023-08-12T01:39:01;6.75;;;3.00;;
52432;SDS011;38352;53.244;6.594;2023-08-12T01:41:29;6.55;;;2.72;;
52432;SDS011;38352;53.244;6.594;2023-08-12T01:43:55;7.55;;;2.92;;
52432;SDS011;38352;53.244;6.594;2023-08-12T01:46:22;7.82;;;2.97;;
52432;SDS011;38352;53.244;6.594;2023-08-12T01:48:48;7.95;;;2.90;;
52432;SDS011;38352;53.244;6.594;2023-08-12T01:51:14;6.45;;;2.92;;
52432;SDS011;38352;53.244;6.594;2023-08-12T01:53:40;8.55;;;3.65;;
52432;SDS011;38352;53.244;6.594;2023-08-12T01:56:06;7.53;;;3.25;;
52432;SDS011;38352;53.244;6.594;2023-08-12T01:58:32;9.18;;;4.75;;
52432;SDS011;38352;53.244;6.594;2023-08-12T02:01:01;9.77;;;4.28;;
52432;SDS011;38352;53.244;6.594;2023-08-12T02:03:27;8.55;;;3.95;;
52432;SDS011;38352;53.244;6.594;2023-08-12T02:05:53;10.50;;;4.28;;
52432;SDS011;38352;53.244;6.594;2023-08-12T02:08:19;8.38;;;3.97;;
52432;SDS011;38352;53.244;6.594;2023-08-12T02:10:46;7.88;;;3.72;;
52432;SDS011;38352;53.244;6.594;2023-08-12T02:13:12;10.73;;;5.10;;
52432;SDS011;38352;53.244;6.594;2023-08-12T02:15:38;9.82;;;3.72;;
52432;SDS011;38352;53.244;6.594;2023-08-12T02:18:04;8.10;;;4.15;;
52432;SDS011;38352;53.244;6.594;2023-08-12T02:20:30;7.90;;;4.10;;
52432;SDS011;38352;53.244;6.594;2023-08-12T02:22:56;7.28;;;4.40;;
52432;SDS011;38352;53.244;6.594;2023-08-12T02:25:22;8.43;;;4.18;;
52432;SDS011;38352;53.244;6.594;2023-08-12T02:27:48;9.80;;;4.55;;
52432;SDS011;38352;53.244;6.594;2023-08-12T02:30:14;9.60;;;4.50;;
52432;SDS011;38352;53.244;6.594;2023-08-12T02:32:40;9.35;;;4.63;;
52432;SDS011;38352;53.244;6.594;2023-08-12T02:35:09;8.13;;;4.90;;
52432;SDS011;38352;53.244;6.594;2023-08-12T02:37:35;7.15;;;4.20;;
52432;SDS011;38352;53.244;6.594;2023-08-12T02:40:02;12.05;;;4.85;;
52432;SDS011;38352;53.244;6.594;2023-08-12T02:42:29;10.50;;;5.00;;
52432;SDS011;38352;53.244;6.594;2023-08-12T02:44:56;10.50;;;4.80;;
52432;SDS011;38352;53.244;6.594;2023-08-12T02:47:22;8.05;;;4.40;;
52432;SDS011;38352;53.244;6.594;2023-08-12T02:49:50;9.65;;;5.10;;
52432;SDS011;38352;53.244;6.594;2023-08-12T02:52:16;8.65;;;5.00;;
52432;SDS011;38352;53.244;6.594;2023-08-12T02:54:42;12.30;;;4.90;;
52432;SDS011;38352;53.244;6.594;2023-08-12T02:57:08;6.90;;;4.38;;
52432;SDS011;38352;53.244;6.594;2023-08-12T02:59:34;8.98;;;5.18;;
52432;SDS011;38352;53.244;6.594;2023-08-12T03:02:01;10.43;;;5.30;;
52432;SDS011;38352;53.244;6.594;2023-08-12T03:04:28;7.97;;;4.72;;
52432;SDS011;38352;53.244;6.594;2023-08-12T03:06:54;12.90;;;5.47;;
52432;SDS011;38352;53.244;6.594;2023-08-12T03:09:20;15.27;;;6.35;;
52432;SDS011;38352;53.244;6.594;2023-08-12T03:11:46;11.00;;;5.72;;
52432;SDS011;38352;53.244;6.594;2023-08-12T03:14:12;11.25;;;5.22;;
52432;SDS011;38352;53.244;6.594;2023-08-12T03:16:39;10.85;;;5.40;;
52432;SDS011;38352;53.244;6.594;2023-08-12T03:19:05;10.27;;;5.60;;
52432;SDS011;38352;53.244;6.594;2023-08-12T03:21:31;10.63;;;5.75;;
52432;SDS011;38352;53.244;6.594;2023-08-12T03:23:57;10.38;;;5.75;;
52432;SDS011;38352;53.244;6.594;2023-08-12T03:26:23;10.95;;;5.28;;
52432;SDS011;38352;53.244;6.594;2023-08-12T03:28:49;10.20;;;5.55;;
52432;SDS011;38352;53.244;6.594;2023-08-12T03:31:18;8.25;;;5.00;;
52432;SDS011;38352;53.244;6.594;2023-08-12T03:33:44;10.27;;;6.10;;
52432;SDS011;38352;53.244;6.594;2023-08-12T03:36:10;11.13;;;6.07;;
52432;SDS011;38352;53.244;6.594;2023-08-12T03:38:36;11.30;;;6.07;;
52432;SDS011;38352;53.244;6.594;2023-08-12T03:41:02;11.77;;;6.63;;
52432;SDS011;38352;53.244;6.594;2023-08-12T03:43:28;14.25;;;6.85;;
52432;SDS011;38352;53.244;6.594;2023-08-12T03:45:55;13.20;;;6.85;;
52432;SDS011;38352;53.244;6.594;2023-08-12T03:48:21;12.32;;;6.50;;
52432;SDS011;38352;53.244;6.594;2023-08-12T03:50:47;13.93;;;7.05;;
52432;SDS011;38352;53.244;6.594;2023-08-12T03:53:15;10.00;;;6.40;;
52432;SDS011;38352;53.244;6.594;2023-08-12T03:55:42;14.23;;;7.55;;
52432;SDS011;38352;53.244;6.594;2023-08-12T03:58:08;12.93;;;7.20;;
52432;SDS011;38352;53.244;6.594;2023-08-12T04:00:34;12.95;;;6.88;;
52432;SDS011;38352;53.244;6.594;2023-08-12T04:03:01;14.00;;;6.70;;
52432;SDS011;38352;53.244;6.594;2023-08-12T04:05:27;11.02;;;6.72;;
52432;SDS011;38352;53.244;6.594;2023-08-12T04:07:53;13.85;;;7.40;;
52432;SDS011;38352;53.244;6.594;2023-08-12T04:10:19;13.63;;;7.97;;
52432;SDS011;38352;53.244;6.594;2023-08-12T04:12:45;11.63;;;6.47;;
52432;SDS011;38352;53.244;6.594;2023-08-12T04:15:11;12.63;;;7.57;;
52432;SDS011;38352;53.244;6.594;2023-08-12T04:17:37;14.07;;;8.38;;
52432;SDS011;38352;53.244;6.594;2023-08-12T04:20:06;13.55;;;7.32;;
52432;SDS011;38352;53.244;6.594;2023-08-12T04:22:32;14.05;;;8.27;;
52432;SDS011;38352;53.244;6.594;2023-08-12T04:24:59;14.43;;;8.85;;
52432;SDS011;38352;53.244;6.594;2023-08-12T04:27:28;13.95;;;8.27;;
52432;SDS011;38352;53.244;6.594;2023-08-12T04:29:54;14.18;;;8.27;;
52432;SDS011;38352;53.244;6.594;2023-08-12T04:32:20;13.50;;;8.73;;
52432;SDS011;38352;53.244;6.594;2023-08-12T04:34:47;16.17;;;9.05;;
52432;SDS011;38352;53.244;6.594;2023-08-12T04:37:13;17.55;;;9.60;;
52432;SDS011;38352;53.244;6.594;2023-08-12T04:39:39;21.17;;;9.68;;
52432;SDS011;38352;53.244;6.594;2023-08-12T04:42:05;18.63;;;9.85;;
52432;SDS011;38352;53.244;6.594;2023-08-12T04:44:31;14.80;;;8.70;;
52432;SDS011;38352;53.244;6.594;2023-08-12T04:46:57;13.38;;;8.90;;
52432;SDS011;38352;53.244;6.594;2023-08-12T04:49:23;15.23;;;8.75;;
52432;SDS011;38352;53.244;6.594;2023-08-12T04:51:53;14.75;;;9.05;;
52432;SDS011;38352;53.244;6.594;2023-08-12T04:54:19;16.17;;;9.25;;
52432;SDS011;38352;53.244;6.594;2023-08-12T04:56:45;16.13;;;10.00;;
52432;SDS011;38352;53.244;6.594;2023-08-12T04:59:11;13.77;;;8.77;;
52432;SDS011;38352;53.244;6.594;2023-08-12T05:01:38;16.45;;;8.68;;
52432;SDS011;38352;53.244;6.594;2023-08-12T05:04:04;15.50;;;8.50;;
52432;SDS011;38352;53.244;6.594;2023-08-12T05:06:30;14.98;;;8.90;;
52432;SDS011;38352;53.244;6.594;2023-08-12T05:09:02;15.82;;;7.95;;
52432;SDS011;38352;53.244;6.594;2023-08-12T05:11:28;17.75;;;8.55;;
52432;SDS011;38352;53.244;6.594;2023-08-12T05:13:54;15.43;;;9.10;;
52432;SDS011;38352;53.244;6.594;2023-08-12T05:16:21;13.02;;;8.70;;
52432;SDS011;38352;53.244;6.594;2023-08-12T05:18:47;12.75;;;8.50;;
52432;SDS011;38352;53.244;6.594;2023-08-12T05:21:13;14.85;;;7.93;;
52432;SDS011;38352;53.244;6.594;2023-08-12T05:23:39;19.10;;;8.40;;
52432;SDS011;38352;53.244;6.594;2023-08-12T05:26:05;17.98;;;9.43;;
52432;SDS011;38352;53.244;6.594;2023-08-12T05:28:31;17.88;;;8.50;;
52432;SDS011;38352;53.244;6.594;2023-08-12T05:30:57;20.05;;;8.00;;
52432;SDS011;38352;53.244;6.594;2023-08-12T05:33:23;13.52;;;7.97;;
52432;SDS011;38352;53.244;6.594;2023-08-12T05:35:50;15.07;;;8.43;;
52432;SDS011;38352;53.244;6.594;2023-08-12T05:38:16;16.80;;;7.78;;
52432;SDS011;38352;53.244;6.594;2023-08-12T05:40:42;14.07;;;7.97;;
52432;SDS011;38352;53.244;6.594;2023-08-12T05:43:08;15.07;;;7.80;;
52432;SDS011;38352;53.244;6.594;2023-08-12T05:45:34;14.43;;;7.57;;
52432;SDS011;38352;53.244;6.594;2023-08-12T05:48:00;14.48;;;7.07;;
52432;SDS011;38352;53.244;6.594;2023-08-12T05:50:26;15.38;;;7.57;;
52432;SDS011;38352;53.244;6.594;2023-08-12T05:52:52;15.50;;;8.57;;
52432;SDS011;38352;53.244;6.594;2023-08-12T05:55:18;14.98;;;7.72;;
52432;SDS011;38352;53.244;6.594;2023-08-12T05:57:44;15.90;;;7.97;;
52432;SDS011;38352;53.244;6.594;2023-08-12T06:00:10;13.55;;;8.50;;
52432;SDS011;38352;53.244;6.594;2023-08-12T06:02:37;12.88;;;7.88;;
52432;SDS011;38352;53.244;6.594;2023-08-12T06:05:03;15.75;;;8.35;;
52432;SDS011;38352;53.244;6.594;2023-08-12T06:07:30;12.35;;;7.72;;
52432;SDS011;38352;53.244;6.594;2023-08-12T06:09:56;14.20;;;8.43;;
52432;SDS011;38352;53.244;6.594;2023-08-12T06:12:22;15.63;;;8.68;;
52432;SDS011;38352;53.244;6.594;2023-08-12T06:14:48;16.17;;;7.85;;
52432;SDS011;38352;53.244;6.594;2023-08-12T06:17:14;16.25;;;9.07;;
52432;SDS011;38352;53.244;6.594;2023-08-12T06:19:40;15.80;;;8.55;;
52432;SDS011;38352;53.244;6.594;2023-08-12T06:22:06;14.20;;;8.18;;
52432;SDS011;38352;53.244;6.594;2023-08-12T06:24:32;17.90;;;9.00;;
52432;SDS011;38352;53.244;6.594;2023-08-12T06:26:58;14.13;;;9.05;;
52432;SDS011;38352;53.244;6.594;2023-08-12T06:29:24;17.17;;;9.48;;
52432;SDS011;38352;53.244;6.594;2023-08-12T06:31:51;15.32;;;9.52;;
52432;SDS011;38352;53.244;6.594;2023-08-12T06:34:17;15.32;;;9.10;;
52432;SDS011;38352;53.244;6.594;2023-08-12T06:36:43;17.48;;;9.45;;
52432;SDS011;38352;53.244;6.594;2023-08-12T06:39:10;16.52;;;10.32;;
52432;SDS011;38352;53.244;6.594;2023-08-12T06:41:36;17.75;;;9.50;;
52432;SDS011;38352;53.244;6.594;2023-08-12T06:44:02;15.20;;;8.25;;
52432;SDS011;38352;53.244;6.594;2023-08-12T06:46:29;15.23;;;9.80;;
52432;SDS011;38352;53.244;6.594;2023-08-12T06:48:56;15.90;;;8.93;;
52432;SDS011;38352;53.244;6.594;2023-08-12T06:51:22;17.60;;;9.60;;
52432;SDS011;38352;53.244;6.594;2023-08-12T06:53:48;17.90;;;9.75;;
52432;SDS011;38352;53.244;6.594;2023-08-12T06:56:14;18.35;;;9.75;;
52432;SDS011;38352;53.244;6.594;2023-08-12T06:58:40;17.80;;;9.75;;
52432;SDS011;38352;53.244;6.594;2023-08-12T07:01:06;19.02;;;10.82;;
52432;SDS011;38352;53.244;6.594;2023-08-12T07:03:32;17.70;;;11.35;;
52432;SDS011;38352;53.244;6.594;2023-08-12T07:05:58;17.20;;;9.98;;
52432;SDS011;38352;53.244;6.594;2023-08-12T07:08:24;18.40;;;10.85;;
52432;SDS011;38352;53.244;6.594;2023-08-12T07:10:52;22.45;;;11.27;;
52432;SDS011;38352;53.244;6.594;2023-08-12T07:13:18;16.70;;;10.85;;
52432;SDS011;38352;53.244;6.594;2023-08-12T07:15:44;16.88;;;10.95;;
52432;SDS011;38352;53.244;6.594;2023-08-12T07:18:10;18.50;;;11.18;;
52432;SDS011;38352;53.244;6.594;2023-08-12T07:20:36;18.95;;;11.60;;
52432;SDS011;38352;53.244;6.594;2023-08-12T07:23:03;23.25;;;11.30;;
52432;SDS011;38352;53.244;6.594;2023-08-12T07:25:29;15.23;;;9.75;;
52432;SDS011;38352;53.244;6.594;2023-08-12T07:27:55;18.85;;;11.30;;
52432;SDS011;38352;53.244;6.594;2023-08-12T07:30:21;17.17;;;9.98;;
52432;SDS011;38352;53.244;6.594;2023-08-12T07:32:47;22.23;;;12.80;;
52432;SDS011;38352;53.244;6.594;2023-08-12T07:35:14;19.35;;;12.57;;
52432;SDS011;38352;53.244;6.594;2023-08-12T07:37:40;23.45;;;12.32;;
52432;SDS011;38352;53.244;6.594;2023-08-12T07:40:06;22.40;;;12.60;;
52432;SDS011;38352;53.244;6.594;2023-08-12T07:42:34;21.58;;;11.95;;
52432;SDS011;38352;53.244;6.594;2023-08-12T07:45:00;22.05;;;13.38;;
52432;SDS011;38352;53.244;6.594;2023-08-12T07:47:26;22.02;;;14.25;;
52432;SDS011;38352;53.244;6.594;2023-08-12T07:49:52;21.42;;;13.07;;
52432;SDS011;38352;53.244;6.594;2023-08-12T07:52:18;23.40;;;12.75;;
52432;SDS011;38352;53.244;6.594;2023-08-12T07:54:44;19.50;;;12.98;;
52432;SDS011;38352;53.244;6.594;2023-08-12T07:57:10;21.85;;;13.70;;
52432;SDS011;38352;53.244;6.594;2023-08-12T07:59:36;25.73;;;13.73;;
52432;SDS011;38352;53.244;6.594;2023-08-12T08:02:02;20.33;;;12.63;;
52432;SDS011;38352;53.244;6.594;2023-08-12T08:04:29;26.45;;;13.85;;
52432;SDS011;38352;53.244;6.594;2023-08-12T08:06:57;21.08;;;15.07;;
52432;SDS011;38352;53.244;6.594;2023-08-12T08:09:23;22.05;;;14.40;;
52432;SDS011;38352;53.244;6.594;2023-08-12T08:11:49;25.30;;;14.70;;
52432;SDS011;38352;53.244;6.594;2023-08-12T08:14:15;23.42;;;14.40;;
52432;SDS011;38352;53.244;6.594;2023-08-12T08:16:42;26.42;;;14.68;;
52432;SDS011;38352;53.244;6.594;2023-08-12T08:19:08;24.00;;;13.90;;
52432;SDS011;38352;53.244;6.594;2023-08-12T08:21:35;27.35;;;14.38;;
52432;SDS011;38352;53.244;6.594;2023-08-12T08:24:01;20.25;;;14.35;;
52432;SDS011;38352;53.244;6.594;2023-08-12T08:26:27;26.50;;;15.05;;
52432;SDS011;38352;53.244;6.594;2023-08-12T08:28:53;23.15;;;13.98;;
52432;SDS011;38352;53.244;6.594;2023-08-12T08:31:19;20.88;;;13.52;;
52432;SDS011;38352;53.244;6.594;2023-08-12T08:33:45;23.15;;;15.02;;
52432;SDS011;38352;53.244;6.594;2023-08-12T08:36:11;28.27;;;17.60;;
52432;SDS011;38352;53.244;6.594;2023-08-12T08:38:37;24.23;;;15.75;;
52432;SDS011;38352;53.244;6.594;2023-08-12T08:41:04;23.92;;;14.85;;
52432;SDS011;38352;53.244;6.594;2023-08-12T08:43:31;20.73;;;13.80;;
52432;SDS011;38352;53.244;6.594;2023-08-12T08:46:01;24.92;;;15.82;;
52432;SDS011;38352;53.244;6.594;2023-08-12T08:48:27;25.30;;;15.50;;
52432;SDS011;38352;53.244;6.594;2023-08-12T08:50:53;22.65;;;15.07;;
52432;SDS011;38352;53.244;6.594;2023-08-12T08:53:22;24.25;;;16.60;;
52432;SDS011;38352;53.244;6.594;2023-08-12T08:55:48;22.67;;;14.82;;
52432;SDS011;38352;53.244;6.594;2023-08-12T08:58:15;26.70;;;15.85;;
52432;SDS011;38352;53.244;6.594;2023-08-12T09:00:41;25.52;;;15.50;;
52432;SDS011;38352;53.244;6.594;2023-08-12T09:03:07;25.95;;;17.30;;
52432;SDS011;38352;53.244;6.594;2023-08-12T09:05:33;26.60;;;15.63;;
52432;SDS011;38352;53.244;6.594;2023-08-12T09:08:02;23.15;;;15.55;;
52432;SDS011;38352;53.244;6.594;2023-08-12T09:10:28;25.02;;;15.50;;
52432;SDS011;38352;53.244;6.594;2023-08-12T09:12:55;24.70;;;16.52;;
52432;SDS011;38352;53.244;6.594;2023-08-12T09:15:21;25.42;;;18.45;;
52432;SDS011;38352;53.244;6.594;2023-08-12T09:17:48;29.42;;;18.58;;
52432;SDS011;38352;53.244;6.594;2023-08-12T09:20:15;33.63;;;18.77;;
52432;SDS011;38352;53.244;6.594;2023-08-12T09:22:41;32.60;;;20.10;;
52432;SDS011;38352;53.244;6.594;2023-08-12T09:25:07;33.53;;;20.92;;
52432;SDS011;38352;53.244;6.594;2023-08-12T09:27:35;35.88;;;20.77;;
52432;SDS011;38352;53.244;6.594;2023-08-12T09:30:02;34.33;;;21.75;;
52432;SDS011;38352;53.244;6.594;2023-08-12T09:32:29;38.95;;;25.55;;
52432;SDS011;38352;53.244;6.594;2023-08-12T09:34:55;38.65;;;22.67;;
52432;SDS011;38352;53.244;6.594;2023-08-12T09:37:22;39.60;;;24.23;;
52432;SDS011;38352;53.244;6.594;2023-08-12T09:39:49;43.03;;;26.00;;
52432;SDS011;38352;53.244;6.594;2023-08-12T09:42:15;44.00;;;26.83;;
52432;SDS011;38352;53.244;6.594;2023-08-12T09:44:42;46.88;;;29.38;;
52432;SDS011;38352;53.244;6.594;2023-08-12T09:47:08;52.80;;;29.27;;
52432;SDS011;38352;53.244;6.594;2023-08-12T09:49:34;52.35;;;30.45;;
52432;SDS011;38352;53.244;6.594;2023-08-12T09:52:01;45.33;;;29.85;;
52432;SDS011;38352;53.244;6.594;2023-08-12T09:54:28;52.92;;;32.13;;
52432;SDS011;38352;53.244;6.594;2023-08-12T09:56:58;54.58;;;32.05;;
52432;SDS011;38352;53.244;6.594;2023-08-12T09:59:24;53.75;;;31.80;;
52432;SDS011;38352;53.244;6.594;2023-08-12T10:01:53;50.65;;;29.25;;
52432;SDS011;38352;53.244;6.594;2023-08-12T10:04:21;49.10;;;29.35;;
52432;SDS011;38352;53.244;6.594;2023-08-12T10:06:48;52.90;;;31.48;;
52432;SDS011;38352;53.244;6.594;2023-08-12T10:09:15;54.10;;;32.20;;
52432;SDS011;38352;53.244;6.594;2023-08-12T10:11:45;46.85;;;29.83;;
52432;SDS011;38352;53.244;6.594;2023-08-12T10:14:15;51.45;;;31.55;;
52432;SDS011;38352;53.244;6.594;2023-08-12T10:16:42;47.50;;;29.20;;
52432;SDS011;38352;53.244;6.594;2023-08-12T10:19:11;42.53;;;26.60;;
52432;SDS011;38352;53.244;6.594;2023-08-12T10:21:38;42.63;;;25.08;;
52432;SDS011;38352;53.244;6.594;2023-08-12T10:24:05;38.67;;;25.55;;
52432;SDS011;38352;53.244;6.594;2023-08-12T10:26:32;34.45;;;23.05;;
52432;SDS011;38352;53.244;6.594;2023-08-12T10:28:59;43.50;;;27.27;;
52432;SDS011;38352;53.244;6.594;2023-08-12T10:31:26;49.00;;;28.23;;
52432;SDS011;38352;53.244;6.594;2023-08-12T10:33:53;39.40;;;24.48;;
52432;SDS011;38352;53.244;6.594;2023-08-12T10:36:20;38.63;;;25.08;;
52432;SDS011;38352;53.244;6.594;2023-08-12T10:38:47;37.20;;;22.70;;
52432;SDS011;38352;53.244;6.594;2023-08-12T10:46:49;39.78;;;23.77;;
52432;SDS011;38352;53.244;6.594;2023-08-12T10:49:15;31.83;;;19.30;;
52432;SDS011;38352;53.244;6.594;2023-08-12T10:51:52;27.88;;;18.25;;
52432;SDS011;38352;53.244;6.594;2023-08-12T10:54:27;22.08;;;14.73;;
52432;SDS011;38352;53.244;6.594;2023-08-12T10:57:03;22.65;;;14.70;;
52432;SDS011;38352;53.244;6.594;2023-08-12T11:02:27;26.83;;;15.43;;
52432;SDS011;38352;53.244;6.594;2023-08-12T11:04:59;16.77;;;10.00;;
52432;SDS011;38352;53.244;6.594;2023-08-12T11:07:42;26.48;;;10.77;;
52432;SDS011;38352;53.244;6.594;2023-08-12T11:10:13;14.00;;;8.18;;
52432;SDS011;38352;53.244;6.594;2023-08-12T11:12:48;14.65;;;7.03;;
52432;SDS011;38352;53.244;6.594;2023-08-12T11:15:14;13.93;;;7.57;;
52432;SDS011;38352;53.244;6.594;2023-08-12T11:17:41;12.07;;;6.90;;
52432;SDS011;38352;53.244;6.594;2023-08-12T11:20:10;11.18;;;6.72;;
52432;SDS011;38352;53.244;6.594;2023-08-12T11:22:38;16.65;;;7.53;;
52432;SDS011;38352;53.244;6.594;2023-08-12T11:25:05;11.90;;;7.25;;
52432;SDS011;38352;53.244;6.594;2023-08-12T11:27:38;11.48;;;6.03;;
52432;SDS011;38352;53.244;6.594;2023-08-12T11:30:05;11.65;;;7.00;;
52432;SDS011;38352;53.244;6.594;2023-08-12T11:35:34;10.55;;;5.20;;
52432;SDS011;38352;53.244;6.594;2023-08-12T11:38:06;10.90;;;6.20;;
52432;SDS011;38352;53.244;6.594;2023-08-12T11:40:44;9.98;;;5.95;;
52432;SDS011;38352;53.244;6.594;2023-08-12T11:43:20;12.18;;;6.22;;
52432;SDS011;38352;53.244;6.594;2023-08-12T11:45:46;9.63;;;5.65;;
52432;SDS011;38352;53.244;6.594;2023-08-12T11:48:12;8.75;;;6.00;;
52432;SDS011;38352;53.244;6.594;2023-08-12T11:50:41;10.38;;;6.20;;
52432;SDS011;38352;53.244;6.594;2023-08-12T11:53:08;9.60;;;5.30;;
52432;SDS011;38352;53.244;6.594;2023-08-12T11:55:34;10.85;;;5.72;;
52432;SDS011;38352;53.244;6.594;2023-08-12T11:58:00;8.75;;;4.90;;
52432;SDS011;38352;53.244;6.594;2023-08-12T12:00:27;6.43;;;3.88;;
52432;SDS011;38352;53.244;6.594;2023-08-12T12:02:54;5.03;;;2.90;;
52432;SDS011;38352;53.244;6.594;2023-08-12T12:05:26;7.57;;;4.05;;
52432;SDS011;38352;53.244;6.594;2023-08-12T12:07:52;7.22;;;4.15;;
52432;SDS011;38352;53.244;6.594;2023-08-12T12:12:54;8.98;;;4.65;;
52432;SDS011;38352;53.244;6.594;2023-08-12T12:15:20;7.95;;;3.90;;
52432;SDS011;38352;53.244;6.594;2023-08-12T12:17:47;6.57;;;3.13;;
52432;SDS011;38352;53.244;6.594;2023-08-12T12:20:13;7.72;;;3.47;;
52432;SDS011;38352;53.244;6.594;2023-08-12T12:22:40;7.18;;;3.58;;
52432;SDS011;38352;53.244;6.594;2023-08-12T12:25:09;9.05;;;3.63;;
52432;SDS011;38352;53.244;6.594;2023-08-12T12:27:39;10.40;;;3.88;;
52432;SDS011;38352;53.244;6.594;2023-08-12T12:30:08;11.25;;;3.95;;
52432;SDS011;38352;53.244;6.594;2023-08-12T12:32:35;10.95;;;4.45;;
52432;SDS011;38352;53.244;6.594;2023-08-12T12:35:01;9.20;;;4.82;;
52432;SDS011;38352;53.244;6.594;2023-08-12T12:37:28;14.93;;;4.75;;
52432;SDS011;38352;53.244;6.594;2023-08-12T12:39:54;11.18;;;4.43;;
52432;SDS011;38352;53.244;6.594;2023-08-12T12:42:20;10.30;;;4.63;;
52432;SDS011;38352;53.244;6.594;2023-08-12T12:44:47;12.38;;;5.05;;
52432;SDS011;38352;53.244;6.594;2023-08-12T12:47:13;11.68;;;4.50;;
52432;SDS011;38352;53.244;6.594;2023-08-12T12:49:39;6.68;;;3.67;;
52432;SDS011;38352;53.244;6.594;2023-08-12T12:52:08;9.70;;;4.75;;
52432;SDS011;38352;53.244;6.594;2023-08-12T12:54:34;9.63;;;3.53;;
52432;SDS011;38352;53.244;6.594;2023-08-12T12:57:00;8.95;;;3.72;;
52432;SDS011;38352;53.244;6.594;2023-08-12T12:59:27;10.02;;;4.07;;
52432;SDS011;38352;53.244;6.594;2023-08-12T13:01:55;7.80;;;3.22;;
52432;SDS011;38352;53.244;6.594;2023-08-12T13:04:22;14.40;;;3.58;;
52432;SDS011;38352;53.244;6.594;2023-08-12T13:06:48;6.93;;;3.03;;
52432;SDS011;38352;53.244;6.594;2023-08-12T13:09:14;8.65;;;3.08;;
52432;SDS011;38352;53.244;6.594;2023-08-12T13:11:40;6.22;;;2.80;;
52432;SDS011;38352;53.244;6.594;2023-08-12T13:14:06;8.18;;;3.10;;
52432;SDS011;38352;53.244;6.594;2023-08-12T13:16:32;5.55;;;3.28;;
52432;SDS011;38352;53.244;6.594;2023-08-12T13:18:58;10.73;;;3.55;;
52432;SDS011;38352;53.244;6.594;2023-08-12T13:21:25;10.18;;;3.00;;
52432;SDS011;38352;53.244;6.594;2023-08-12T13:23:51;9.60;;;3.47;;
52432;SDS011;38352;53.244;6.594;2023-08-12T13:26:17;8.73;;;3.45;;
52432;SDS011;38352;53.244;6.594;2023-08-12T13:28:44;8.57;;;2.95;;
52432;SDS011;38352;53.244;6.594;2023-08-12T13:31:13;7.70;;;3.13;;
52432;SDS011;38352;53.244;6.594;2023-08-12T13:33:39;11.63;;;3.40;;
52432;SDS011;38352;53.244;6.594;2023-08-12T13:36:05;11.85;;;3.70;;
52432;SDS011;38352;53.244;6.594;2023-08-12T13:38:31;11.52;;;3.83;;
52432;SDS011;38352;53.244;6.594;2023-08-12T13:40:57;9.80;;;3.92;;
52432;SDS011;38352;53.244;6.594;2023-08-12T13:43:23;12.43;;;3.42;;
52432;SDS011;38352;53.244;6.594;2023-08-12T13:45:49;10.55;;;3.85;;
52432;SDS011;38352;53.244;6.594;2023-08-12T13:48:16;11.25;;;3.67;;
52432;SDS011;38352;53.244;6.594;2023-08-12T13:50:42;12.68;;;4.53;;
52432;SDS011;38352;53.244;6.594;2023-08-12T13:53:08;11.05;;;4.03;;
52432;SDS011;38352;53.244;6.594;2023-08-12T13:55:34;9.13;;;3.63;;
52432;SDS011;38352;53.244;6.594;2023-08-12T13:58:00;10.07;;;4.30;;
52432;SDS011;38352;53.244;6.594;2023-08-12T14:00:26;15.55;;;4.28;;
52432;SDS011;38352;53.244;6.594;2023-08-12T14:02:52;10.70;;;4.68;;
52432;SDS011;38352;53.244;6.594;2023-08-12T14:05:18;17.05;;;5.05;;
52432;SDS011;38352;53.244;6.594;2023-08-12T14:07:45;13.02;;;4.65;;
52432;SDS011;38352;53.244;6.594;2023-08-12T14:10:11;12.80;;;4.88;;
52432;SDS011;38352;53.244;6.594;2023-08-12T14:12:37;11.27;;;4.10;;
52432;SDS011;38352;53.244;6.594;2023-08-12T14:15:03;8.35;;;3.65;;
52432;SDS011;38352;53.244;6.594;2023-08-12T14:17:30;12.23;;;4.15;;
52432;SDS011;38352;53.244;6.594;2023-08-12T14:19:56;8.82;;;3.05;;
52432;SDS011;38352;53.244;6.594;2023-08-12T14:22:23;7.68;;;2.83;;
52432;SDS011;38352;53.244;6.594;2023-08-12T14:24:49;8.00;;;2.78;;
52432;SDS011;38352;53.244;6.594;2023-08-12T14:27:18;8.43;;;3.40;;
52432;SDS011;38352;53.244;6.594;2023-08-12T14:29:45;7.25;;;2.45;;
52432;SDS011;38352;53.244;6.594;2023-08-12T14:32:11;6.15;;;2.22;;
52432;SDS011;38352;53.244;6.594;2023-08-12T14:34:37;5.68;;;2.38;;
52432;SDS011;38352;53.244;6.594;2023-08-12T14:37:03;10.80;;;2.55;;
52432;SDS011;38352;53.244;6.594;2023-08-12T14:39:30;6.53;;;2.40;;
52432;SDS011;38352;53.244;6.594;2023-08-12T14:41:59;7.25;;;2.03;;
52432;SDS011;38352;53.244;6.594;2023-08-12T14:44:25;5.70;;;2.00;;
52432;SDS011;38352;53.244;6.594;2023-08-12T14:46:51;6.28;;;2.30;;
52432;SDS011;38352;53.244;6.594;2023-08-12T14:49:18;5.45;;;2.30;;